メインページ
METAR-TAF:

METAR-TAF

空港 :

ハーツフィールド・ジャクソン・アトランタ国際空港

アトランタ, ジョージア州, アメリカ合衆国

緯度: 33-38-25N, 経度: 084-25-37W, 海抜: 313m

現時点の気象観測

当レポートは52分前の08:52(UTC)に作成
南/南東の風 3kt
気温 21°C
湿度 100%
気圧 1019 hPa
視程: 14.5km
高度20000ftの雲は散在している
高度25000ftの千切れ雲あり

METAR: KATL 200852Z 15003KT 9SM SCT200 BKN250 21/21 A3009 RMK AO2 SLP181 T02110206 55005

時間: 05:44 (09:44 UTC)

予報

当レポートは2時間8分前の07:36(UTC)に作成
予報は20日の 08時(UTC)から 21日の 12時(UTC)まで有効
の風 3kt
視程: 10km
高度5000ftの雲はほとんどない
高度20000ftの雲はほとんどない
高度25000ftの千切れ雲あり
20日の 1100時(UTC)から
南/南西の風 4kt
視程: 10km
高度7000ftの千切れ雲あり
20日の 1400時(UTC)から
の風 kt
視程: 10km
高度12000ftの千切れ雲あり
20日の 1700時(UTC)から
南/南東の風 4kt
視程: 10km
高度7000ftの千切れ雲あり
確率 30%
20日の 18時(UTC)から 20日の 22時(UTC)まで
視程: 8.0km
高度3000ftの千切れ雲あり
にわか雨
21日の 0800時(UTC)から
南東の風 4kt
視程: 10km
高度3000ftの千切れ雲あり

TAF: KATL 200736Z 2008/2112 19003KT P6SM FEW050 FEW200 BKN250 FM201100 21004KT P6SM BKN070 FM201400 00000KT P6SM BKN120 FM201700 15004KT P6SM BKN070 PROB30 2018/2022 5SM SHRA BKN030 FM210800 14004KT P6SM BKN030

4,000以上の空港の気象観測と天気予報(METAR報とTAF報)

利用可能な観測所は地図上に黄色い丸と赤い丸で示す。

丸の上にカーソルを重ねると観測所名を参照できる。

次にクリックすると気象観測と天気予報を参照できる。

マップの切り替え:黒色「×」印の緑ボタンをクリックして拡大、「-」印の緑ボタンをクリックして縮小、緑色の三角印をクリックして隣りの地図に切り替え


METAR-TAF: